sensor_id;sensor_type;location;lat;lon;timestamp;temperature;humidity
57857;DHT22;43683;48.650;9.290;2023-08-08T00:02:05;10.70;83.20
57857;DHT22;43683;48.650;9.290;2023-08-08T00:04:31;10.60;83.50
57857;DHT22;43683;48.650;9.290;2023-08-08T00:06:56;10.50;83.90
57857;DHT22;43683;48.650;9.290;2023-08-08T00:09:22;10.40;84.30
57857;DHT22;43683;48.650;9.290;2023-08-08T00:11:48;10.20;84.70
57857;DHT22;43683;48.650;9.290;2023-08-08T00:14:14;10.20;85.10
57857;DHT22;43683;48.650;9.290;2023-08-08T00:16:40;10.10;85.50
57857;DHT22;43683;48.650;9.290;2023-08-08T00:19:05;10.10;85.70
57857;DHT22;43683;48.650;9.290;2023-08-08T00:21:31;10.10;85.60
57857;DHT22;43683;48.650;9.290;2023-08-08T00:23:56;10.20;85.30
57857;DHT22;43683;48.650;9.290;2023-08-08T00:26:22;10.40;84.80
57857;DHT22;43683;48.650;9.290;2023-08-08T00:28:47;10.50;84.30
57857;DHT22;43683;48.650;9.290;2023-08-08T00:31:13;10.70;83.90
57857;DHT22;43683;48.650;9.290;2023-08-08T00:33:38;10.80;83.60
57857;DHT22;43683;48.650;9.290;2023-08-08T00:36:04;11.00;83.20
57857;DHT22;43683;48.650;9.290;2023-08-08T00:38:30;11.10;83.00
57857;DHT22;43683;48.650;9.290;2023-08-08T00:40:55;11.20;82.80
57857;DHT22;43683;48.650;9.290;2023-08-08T00:43:21;11.30;82.60
57857;DHT22;43683;48.650;9.290;2023-08-08T00:45:46;11.40;82.60
57857;DHT22;43683;48.650;9.290;2023-08-08T00:48:13;11.50;82.60
57857;DHT22;43683;48.650;9.290;2023-08-08T00:50:42;11.50;82.60
57857;DHT22;43683;48.650;9.290;2023-08-08T00:53:08;11.60;82.60
57857;DHT22;43683;48.650;9.290;2023-08-08T00:55:34;11.70;82.50
57857;DHT22;43683;48.650;9.290;2023-08-08T00:57:59;11.70;82.40
57857;DHT22;43683;48.650;9.290;2023-08-08T01:00:25;11.80;82.40
57857;DHT22;43683;48.650;9.290;2023-08-08T01:02:51;11.90;82.30
57857;DHT22;43683;48.650;9.290;2023-08-08T01:05:16;11.90;82.30
57857;DHT22;43683;48.650;9.290;2023-08-08T01:07:52;12.00;82.20
57857;DHT22;43683;48.650;9.290;2023-08-08T01:10:28;12.00;82.40
57857;DHT22;43683;48.650;9.290;2023-08-08T01:13:07;12.00;82.50
57857;DHT22;43683;48.650;9.290;2023-08-08T01:15:34;11.90;82.50
57857;DHT22;43683;48.650;9.290;2023-08-08T01:18:08;12.00;82.40
57857;DHT22;43683;48.650;9.290;2023-08-08T01:20:35;12.00;82.50
57857;DHT22;43683;48.650;9.290;2023-08-08T01:23:19;12.00;82.30
57857;DHT22;43683;48.650;9.290;2023-08-08T01:25:49;12.00;82.50
57857;DHT22;43683;48.650;9.290;2023-08-08T01:28:16;12.00;82.50
57857;DHT22;43683;48.650;9.290;2023-08-08T01:30:45;12.00;82.60
57857;DHT22;43683;48.650;9.290;2023-08-08T01:33:11;12.00;82.50
57857;DHT22;43683;48.650;9.290;2023-08-08T01:35:38;12.00;82.50
57857;DHT22;43683;48.650;9.290;2023-08-08T01:38:21;12.00;82.50
57857;DHT22;43683;48.650;9.290;2023-08-08T01:40:48;12.10;82.50
57857;DHT22;43683;48.650;9.290;2023-08-08T01:43:15;12.10;82.30
57857;DHT22;43683;48.650;9.290;2023-08-08T01:45:42;12.10;82.40
57857;DHT22;43683;48.650;9.290;2023-08-08T01:48:10;12.10;82.30
57857;DHT22;43683;48.650;9.290;2023-08-08T01:50:37;12.10;82.30
57857;DHT22;43683;48.650;9.290;2023-08-08T01:53:03;12.10;82.40
57857;DHT22;43683;48.650;9.290;2023-08-08T01:55:30;12.10;82.50
57857;DHT22;43683;48.650;9.290;2023-08-08T01:57:56;12.10;82.50
57857;DHT22;43683;48.650;9.290;2023-08-08T02:00:22;12.10;82.40
57857;DHT22;43683;48.650;9.290;2023-08-08T02:02:48;12.10;82.40
57857;DHT22;43683;48.650;9.290;2023-08-08T02:05:14;12.00;82.70
57857;DHT22;43683;48.650;9.290;2023-08-08T02:07:39;11.90;83.00
57857;DHT22;43683;48.650;9.290;2023-08-08T02:10:05;11.90;83.20
57857;DHT22;43683;48.650;9.290;2023-08-08T02:12:31;11.80;83.30
57857;DHT22;43683;48.650;9.290;2023-08-08T02:14:57;11.80;83.40
57857;DHT22;43683;48.650;9.290;2023-08-08T02:17:24;11.80;83.50
57857;DHT22;43683;48.650;9.290;2023-08-08T02:19:49;11.80;83.50
57857;DHT22;43683;48.650;9.290;2023-08-08T02:22:15;11.90;83.50
57857;DHT22;43683;48.650;9.290;2023-08-08T02:24:40;11.80;83.50
57857;DHT22;43683;48.650;9.290;2023-08-08T02:27:06;11.90;83.40
57857;DHT22;43683;48.650;9.290;2023-08-08T02:29:31;11.90;83.40
57857;DHT22;43683;48.650;9.290;2023-08-08T02:31:57;11.90;83.30
57857;DHT22;43683;48.650;9.290;2023-08-08T02:34:22;12.00;83.20
57857;DHT22;43683;48.650;9.290;2023-08-08T02:36:49;11.90;83.20
57857;DHT22;43683;48.650;9.290;2023-08-08T02:39:14;12.00;83.20
57857;DHT22;43683;48.650;9.290;2023-08-08T02:41:40;12.00;83.10
57857;DHT22;43683;48.650;9.290;2023-08-08T02:44:06;12.00;83.00
57857;DHT22;43683;48.650;9.290;2023-08-08T02:46:32;12.10;83.10
57857;DHT22;43683;48.650;9.290;2023-08-08T02:48:58;12.10;83.00
57857;DHT22;43683;48.650;9.290;2023-08-08T02:51:23;12.10;82.80
57857;DHT22;43683;48.650;9.290;2023-08-08T02:53:49;12.20;82.70
57857;DHT22;43683;48.650;9.290;2023-08-08T02:56:15;12.10;82.60
57857;DHT22;43683;48.650;9.290;2023-08-08T02:58:41;12.20;82.70
57857;DHT22;43683;48.650;9.290;2023-08-08T03:01:07;12.10;82.80
57857;DHT22;43683;48.650;9.290;2023-08-08T03:03:32;12.10;82.90
57857;DHT22;43683;48.650;9.290;2023-08-08T03:05:58;12.10;83.00
57857;DHT22;43683;48.650;9.290;2023-08-08T03:08:24;12.10;83.10
57857;DHT22;43683;48.650;9.290;2023-08-08T03:10:50;12.20;83.00
57857;DHT22;43683;48.650;9.290;2023-08-08T03:13:15;12.20;82.90
57857;DHT22;43683;48.650;9.290;2023-08-08T03:15:41;12.20;82.80
57857;DHT22;43683;48.650;9.290;2023-08-08T03:18:07;12.20;82.90
57857;DHT22;43683;48.650;9.290;2023-08-08T03:20:33;12.10;82.90
57857;DHT22;43683;48.650;9.290;2023-08-08T03:22:58;12.10;83.00
57857;DHT22;43683;48.650;9.290;2023-08-08T03:25:24;12.00;83.20
57857;DHT22;43683;48.650;9.290;2023-08-08T03:27:50;12.00;83.30
57857;DHT22;43683;48.650;9.290;2023-08-08T03:30:16;12.00;83.50
57857;DHT22;43683;48.650;9.290;2023-08-08T03:32:42;11.80;83.80
57857;DHT22;43683;48.650;9.290;2023-08-08T03:35:08;11.70;84.30
57857;DHT22;43683;48.650;9.290;2023-08-08T03:37:34;11.60;84.70
57857;DHT22;43683;48.650;9.290;2023-08-08T03:40:00;11.50;84.90
57857;DHT22;43683;48.650;9.290;2023-08-08T03:42:26;11.50;85.20
57857;DHT22;43683;48.650;9.290;2023-08-08T03:44:51;11.40;85.50
57857;DHT22;43683;48.650;9.290;2023-08-08T03:47:17;11.30;85.70
57857;DHT22;43683;48.650;9.290;2023-08-08T03:49:43;11.40;85.90
57857;DHT22;43683;48.650;9.290;2023-08-08T03:52:08;11.40;85.70
57857;DHT22;43683;48.650;9.290;2023-08-08T03:54:33;11.50;85.40
57857;DHT22;43683;48.650;9.290;2023-08-08T03:56:59;11.60;85.00
57857;DHT22;43683;48.650;9.290;2023-08-08T03:59:26;11.70;84.70
57857;DHT22;43683;48.650;9.290;2023-08-08T04:01:51;11.90;84.40
57857;DHT22;43683;48.650;9.290;2023-08-08T04:04:17;11.90;84.10
57857;DHT22;43683;48.650;9.290;2023-08-08T04:06:43;12.00;83.90
57857;DHT22;43683;48.650;9.290;2023-08-08T04:09:08;12.10;83.70
57857;DHT22;43683;48.650;9.290;2023-08-08T04:11:34;12.20;83.60
57857;DHT22;43683;48.650;9.290;2023-08-08T04:14:01;12.20;83.40
57857;DHT22;43683;48.650;9.290;2023-08-08T04:16:27;12.30;83.30
57857;DHT22;43683;48.650;9.290;2023-08-08T04:18:53;12.30;83.20
57857;DHT22;43683;48.650;9.290;2023-08-08T04:21:19;12.40;83.20
57857;DHT22;43683;48.650;9.290;2023-08-08T04:23:44;12.40;83.20
57857;DHT22;43683;48.650;9.290;2023-08-08T04:26:10;12.40;83.00
57857;DHT22;43683;48.650;9.290;2023-08-08T04:28:36;12.50;83.10
57857;DHT22;43683;48.650;9.290;2023-08-08T04:31:01;12.50;83.10
57857;DHT22;43683;48.650;9.290;2023-08-08T04:33:27;12.50;83.10
57857;DHT22;43683;48.650;9.290;2023-08-08T04:35:52;12.50;83.00
57857;DHT22;43683;48.650;9.290;2023-08-08T04:38:18;12.60;83.00
57857;DHT22;43683;48.650;9.290;2023-08-08T04:40:43;12.60;82.90
57857;DHT22;43683;48.650;9.290;2023-08-08T04:43:09;12.60;82.80
57857;DHT22;43683;48.650;9.290;2023-08-08T04:45:34;12.60;82.80
57857;DHT22;43683;48.650;9.290;2023-08-08T04:48:00;12.50;82.90
57857;DHT22;43683;48.650;9.290;2023-08-08T04:50:25;12.50;83.30
57857;DHT22;43683;48.650;9.290;2023-08-08T04:52:51;12.40;83.60
57857;DHT22;43683;48.650;9.290;2023-08-08T04:55:17;12.30;83.80
57857;DHT22;43683;48.650;9.290;2023-08-08T04:57:42;12.30;84.10
57857;DHT22;43683;48.650;9.290;2023-08-08T05:00:08;12.20;84.20
57857;DHT22;43683;48.650;9.290;2023-08-08T05:02:34;12.20;84.30
57857;DHT22;43683;48.650;9.290;2023-08-08T05:05:00;12.20;84.40
57857;DHT22;43683;48.650;9.290;2023-08-08T05:07:26;12.10;84.40
57857;DHT22;43683;48.650;9.290;2023-08-08T05:09:52;12.10;84.30
57857;DHT22;43683;48.650;9.290;2023-08-08T05:12:17;12.20;84.30
57857;DHT22;43683;48.650;9.290;2023-08-08T05:14:43;12.20;84.00
57857;DHT22;43683;48.650;9.290;2023-08-08T05:17:08;12.30;83.80
57857;DHT22;43683;48.650;9.290;2023-08-08T05:19:34;12.40;83.50
57857;DHT22;43683;48.650;9.290;2023-08-08T05:22:00;12.50;83.00
57857;DHT22;43683;48.650;9.290;2023-08-08T05:24:26;12.60;82.70
57857;DHT22;43683;48.650;9.290;2023-08-08T05:26:52;12.70;82.50
57857;DHT22;43683;48.650;9.290;2023-08-08T05:29:19;12.70;82.10
57857;DHT22;43683;48.650;9.290;2023-08-08T05:31:45;12.90;81.90
57857;DHT22;43683;48.650;9.290;2023-08-08T05:34:11;12.90;81.50
57857;DHT22;43683;48.650;9.290;2023-08-08T05:36:36;13.10;81.20
57857;DHT22;43683;48.650;9.290;2023-08-08T05:39:02;13.20;81.10
57857;DHT22;43683;48.650;9.290;2023-08-08T05:41:27;13.20;81.20
57857;DHT22;43683;48.650;9.290;2023-08-08T05:43:53;13.20;81.40
57857;DHT22;43683;48.650;9.290;2023-08-08T05:46:18;13.10;81.60
57857;DHT22;43683;48.650;9.290;2023-08-08T05:48:44;13.10;81.70
57857;DHT22;43683;48.650;9.290;2023-08-08T05:51:09;13.20;81.80
57857;DHT22;43683;48.650;9.290;2023-08-08T05:53:35;13.30;81.50
57857;DHT22;43683;48.650;9.290;2023-08-08T05:56:00;13.60;80.90
57857;DHT22;43683;48.650;9.290;2023-08-08T05:58:26;13.90;80.10
57857;DHT22;43683;48.650;9.290;2023-08-08T06:00:52;14.10;79.60
57857;DHT22;43683;48.650;9.290;2023-08-08T06:03:17;14.20;79.20
57857;DHT22;43683;48.650;9.290;2023-08-08T06:05:43;14.20;79.00
57857;DHT22;43683;48.650;9.290;2023-08-08T06:08:08;14.20;79.20
57857;DHT22;43683;48.650;9.290;2023-08-08T06:10:37;14.20;79.30
57857;DHT22;43683;48.650;9.290;2023-08-08T06:13:03;14.10;79.30
57857;DHT22;43683;48.650;9.290;2023-08-08T06:15:29;14.20;79.30
57857;DHT22;43683;48.650;9.290;2023-08-08T06:17:54;14.30;78.90
57857;DHT22;43683;48.650;9.290;2023-08-08T06:20:20;14.50;78.50
57857;DHT22;43683;48.650;9.290;2023-08-08T06:22:46;14.50;78.30
57857;DHT22;43683;48.650;9.290;2023-08-08T06:25:12;14.50;78.30
57857;DHT22;43683;48.650;9.290;2023-08-08T06:27:38;14.50;78.20
57857;DHT22;43683;48.650;9.290;2023-08-08T06:30:04;14.80;77.90
57857;DHT22;43683;48.650;9.290;2023-08-08T06:32:30;15.00;77.50
57857;DHT22;43683;48.650;9.290;2023-08-08T06:34:56;15.10;77.20
57857;DHT22;43683;48.650;9.290;2023-08-08T06:37:21;15.20;76.90
57857;DHT22;43683;48.650;9.290;2023-08-08T06:39:47;15.40;76.50
57857;DHT22;43683;48.650;9.290;2023-08-08T06:42:12;15.60;76.10
57857;DHT22;43683;48.650;9.290;2023-08-08T06:44:44;15.80;75.60
57857;DHT22;43683;48.650;9.290;2023-08-08T06:47:10;16.00;75.10
57857;DHT22;43683;48.650;9.290;2023-08-08T06:49:37;16.20;74.90
57857;DHT22;43683;48.650;9.290;2023-08-08T06:52:03;16.40;74.50
57857;DHT22;43683;48.650;9.290;2023-08-08T06:54:29;16.50;74.30
57857;DHT22;43683;48.650;9.290;2023-08-08T06:56:54;16.60;74.20
57857;DHT22;43683;48.650;9.290;2023-08-08T06:59:22;16.80;74.00
57857;DHT22;43683;48.650;9.290;2023-08-08T07:01:48;17.00;73.70
57857;DHT22;43683;48.650;9.290;2023-08-08T07:04:14;17.20;73.50
57857;DHT22;43683;48.650;9.290;2023-08-08T07:06:40;17.40;73.10
57857;DHT22;43683;48.650;9.290;2023-08-08T07:09:06;17.60;72.90
57857;DHT22;43683;48.650;9.290;2023-08-08T07:11:31;17.80;72.60
57857;DHT22;43683;48.650;9.290;2023-08-08T07:13:57;18.00;72.10
57857;DHT22;43683;48.650;9.290;2023-08-08T07:16:23;18.30;71.80
57857;DHT22;43683;48.650;9.290;2023-08-08T07:18:48;18.40;71.50
57857;DHT22;43683;48.650;9.290;2023-08-08T07:21:14;18.50;71.20
57857;DHT22;43683;48.650;9.290;2023-08-08T07:23:40;18.60;70.80
57857;DHT22;43683;48.650;9.290;2023-08-08T07:26:06;18.70;70.40
57857;DHT22;43683;48.650;9.290;2023-08-08T07:28:31;18.90;70.40
57857;DHT22;43683;48.650;9.290;2023-08-08T07:30:58;19.10;69.90
57857;DHT22;43683;48.650;9.290;2023-08-08T07:33:23;19.20;69.50
57857;DHT22;43683;48.650;9.290;2023-08-08T07:35:52;19.30;69.30
57857;DHT22;43683;48.650;9.290;2023-08-08T07:38:18;19.30;68.80
57857;DHT22;43683;48.650;9.290;2023-08-08T07:40:43;19.40;68.80
57857;DHT22;43683;48.650;9.290;2023-08-08T07:43:09;19.50;68.60
57857;DHT22;43683;48.650;9.290;2023-08-08T07:45:35;19.60;68.30
57857;DHT22;43683;48.650;9.290;2023-08-08T07:48:00;19.80;68.00
57857;DHT22;43683;48.650;9.290;2023-08-08T07:50:26;20.10;67.60
57857;DHT22;43683;48.650;9.290;2023-08-08T07:52:51;20.40;66.80
57857;DHT22;43683;48.650;9.290;2023-08-08T07:55:17;20.70;66.20
57857;DHT22;43683;48.650;9.290;2023-08-08T07:57:43;21.10;65.00
57857;DHT22;43683;48.650;9.290;2023-08-08T08:00:09;21.50;63.70
57857;DHT22;43683;48.650;9.290;2023-08-08T08:02:38;21.90;62.00
57857;DHT22;43683;48.650;9.290;2023-08-08T08:05:04;22.20;60.40
57857;DHT22;43683;48.650;9.290;2023-08-08T08:07:32;22.40;59.50
57857;DHT22;43683;48.650;9.290;2023-08-08T08:09:58;22.50;58.70
57857;DHT22;43683;48.650;9.290;2023-08-08T08:12:23;22.60;58.20
57857;DHT22;43683;48.650;9.290;2023-08-08T08:14:49;22.80;57.30
57857;DHT22;43683;48.650;9.290;2023-08-08T08:17:14;22.50;57.60
57857;DHT22;43683;48.650;9.290;2023-08-08T08:19:40;22.20;58.00
57857;DHT22;43683;48.650;9.290;2023-08-08T08:22:05;22.10;57.80
57857;DHT22;43683;48.650;9.290;2023-08-08T08:24:31;22.20;57.60
57857;DHT22;43683;48.650;9.290;2023-08-08T08:26:56;22.50;56.70
57857;DHT22;43683;48.650;9.290;2023-08-08T08:29:22;22.50;56.40
57857;DHT22;43683;48.650;9.290;2023-08-08T08:31:47;22.20;56.40
57857;DHT22;43683;48.650;9.290;2023-08-08T08:34:13;21.70;57.10
57857;DHT22;43683;48.650;9.290;2023-08-08T08:36:39;21.40;57.60
57857;DHT22;43683;48.650;9.290;2023-08-08T08:39:04;21.40;57.50
57857;DHT22;43683;48.650;9.290;2023-08-08T08:41:31;21.30;57.20
57857;DHT22;43683;48.650;9.290;2023-08-08T08:44:00;21.50;57.00
57857;DHT22;43683;48.650;9.290;2023-08-08T08:46:26;21.50;56.70
57857;DHT22;43683;48.650;9.290;2023-08-08T08:48:54;21.40;56.70
57857;DHT22;43683;48.650;9.290;2023-08-08T08:51:21;21.60;56.40
57857;DHT22;43683;48.650;9.290;2023-08-08T08:53:47;22.10;55.70
57857;DHT22;43683;48.650;9.290;2023-08-08T08:56:14;22.40;55.70
57857;DHT22;43683;48.650;9.290;2023-08-08T08:58:40;22.40;54.80
57857;DHT22;43683;48.650;9.290;2023-08-08T09:01:07;22.50;54.80
57857;DHT22;43683;48.650;9.290;2023-08-08T09:03:34;22.50;54.60
57857;DHT22;43683;48.650;9.290;2023-08-08T09:06:00;22.70;54.20
57857;DHT22;43683;48.650;9.290;2023-08-08T09:08:26;22.90;53.90
57857;DHT22;43683;48.650;9.290;2023-08-08T09:10:52;22.90;54.00
57857;DHT22;43683;48.650;9.290;2023-08-08T09:13:17;22.90;53.80
57857;DHT22;43683;48.650;9.290;2023-08-08T09:15:44;23.20;53.60
57857;DHT22;43683;48.650;9.290;2023-08-08T09:18:12;23.20;53.10
57857;DHT22;43683;48.650;9.290;2023-08-08T09:20:37;23.20;52.90
57857;DHT22;43683;48.650;9.290;2023-08-08T09:23:03;22.80;53.20
57857;DHT22;43683;48.650;9.290;2023-08-08T09:25:28;22.80;53.20
57857;DHT22;43683;48.650;9.290;2023-08-08T09:27:54;23.00;53.50
57857;DHT22;43683;48.650;9.290;2023-08-08T09:30:20;23.20;53.00
57857;DHT22;43683;48.650;9.290;2023-08-08T09:32:46;23.30;52.60
57857;DHT22;43683;48.650;9.290;2023-08-08T09:35:12;23.40;52.20
57857;DHT22;43683;48.650;9.290;2023-08-08T09:37:38;23.50;51.70
57857;DHT22;43683;48.650;9.290;2023-08-08T09:40:04;23.50;51.70
57857;DHT22;43683;48.650;9.290;2023-08-08T09:42:33;23.50;51.70
57857;DHT22;43683;48.650;9.290;2023-08-08T09:44:59;23.50;51.30
57857;DHT22;43683;48.650;9.290;2023-08-08T09:47:25;24.00;50.70
57857;DHT22;43683;48.650;9.290;2023-08-08T09:50:00;24.20;50.10
57857;DHT22;43683;48.650;9.290;2023-08-08T09:52:27;24.00;50.10
57857;DHT22;43683;48.650;9.290;2023-08-08T09:54:54;23.80;50.10
57857;DHT22;43683;48.650;9.290;2023-08-08T09:57:21;24.10;49.90
57857;DHT22;43683;48.650;9.290;2023-08-08T09:59:48;24.50;49.60
57857;DHT22;43683;48.650;9.290;2023-08-08T10:02:15;24.90;49.10
57857;DHT22;43683;48.650;9.290;2023-08-08T10:04:47;25.10;48.30
57857;DHT22;43683;48.650;9.290;2023-08-08T10:07:13;24.90;48.50
57857;DHT22;43683;48.650;9.290;2023-08-08T10:09:39;24.70;48.70
57857;DHT22;43683;48.650;9.290;2023-08-08T10:12:06;24.40;48.60
57857;DHT22;43683;48.650;9.290;2023-08-08T10:14:32;24.20;48.70
57857;DHT22;43683;48.650;9.290;2023-08-08T10:17:03;24.00;49.00
57857;DHT22;43683;48.650;9.290;2023-08-08T10:19:28;23.60;48.90
57857;DHT22;43683;48.650;9.290;2023-08-08T10:22:00;23.70;48.40
57857;DHT22;43683;48.650;9.290;2023-08-08T10:24:36;23.80;48.00
57857;DHT22;43683;48.650;9.290;2023-08-08T10:27:02;24.00;47.80
57857;DHT22;43683;48.650;9.290;2023-08-08T10:29:33;24.60;47.50
57857;DHT22;43683;48.650;9.290;2023-08-08T10:32:01;25.20;46.30
57857;DHT22;43683;48.650;9.290;2023-08-08T10:34:43;25.30;45.70
57857;DHT22;43683;48.650;9.290;2023-08-08T10:37:15;25.00;45.80
57857;DHT22;43683;48.650;9.290;2023-08-08T10:39:54;24.50;46.40
57857;DHT22;43683;48.650;9.290;2023-08-08T10:42:23;24.30;46.50
57857;DHT22;43683;48.650;9.290;2023-08-08T10:44:55;24.50;46.90
57857;DHT22;43683;48.650;9.290;2023-08-08T10:47:25;24.80;46.00
57857;DHT22;43683;48.650;9.290;2023-08-08T10:50:05;25.00;45.30
57857;DHT22;43683;48.650;9.290;2023-08-08T10:58:04;24.40;44.90
57857;DHT22;43683;48.650;9.290;2023-08-08T11:00:31;24.50;44.80
57857;DHT22;43683;48.650;9.290;2023-08-08T11:02:58;25.00;44.30
57857;DHT22;43683;48.650;9.290;2023-08-08T11:05:24;25.50;44.00
57857;DHT22;43683;48.650;9.290;2023-08-08T11:07:51;25.10;44.30
57857;DHT22;43683;48.650;9.290;2023-08-08T11:10:17;25.10;44.10
57857;DHT22;43683;48.650;9.290;2023-08-08T11:12:56;24.90;44.00
57857;DHT22;43683;48.650;9.290;2023-08-08T11:15:22;24.40;43.80
57857;DHT22;43683;48.650;9.290;2023-08-08T11:17:48;24.40;44.70
57857;DHT22;43683;48.650;9.290;2023-08-08T11:20:14;24.00;44.50
57857;DHT22;43683;48.650;9.290;2023-08-08T11:22:39;23.60;44.80
57857;DHT22;43683;48.650;9.290;2023-08-08T11:25:05;23.90;44.50
57857;DHT22;43683;48.650;9.290;2023-08-08T11:27:33;23.90;44.10
57857;DHT22;43683;48.650;9.290;2023-08-08T11:29:59;24.00;44.00
57857;DHT22;43683;48.650;9.290;2023-08-08T11:32:27;24.40;43.50
57857;DHT22;43683;48.650;9.290;2023-08-08T11:34:54;25.20;42.70
57857;DHT22;43683;48.650;9.290;2023-08-08T11:37:20;25.40;42.00
57857;DHT22;43683;48.650;9.290;2023-08-08T11:39:46;25.50;41.30
57857;DHT22;43683;48.650;9.290;2023-08-08T11:42:12;25.80;41.40
57857;DHT22;43683;48.650;9.290;2023-08-08T11:44:38;26.00;40.10
57857;DHT22;43683;48.650;9.290;2023-08-08T11:47:04;26.10;40.00
57857;DHT22;43683;48.650;9.290;2023-08-08T11:49:30;26.00;40.20
57857;DHT22;43683;48.650;9.290;2023-08-08T11:52:03;26.00;40.20
57857;DHT22;43683;48.650;9.290;2023-08-08T11:54:31;26.00;40.30
57857;DHT22;43683;48.650;9.290;2023-08-08T11:56:57;26.40;40.10
57857;DHT22;43683;48.650;9.290;2023-08-08T11:59:23;25.70;40.10
57857;DHT22;43683;48.650;9.290;2023-08-08T12:01:49;25.00;40.80
57857;DHT22;43683;48.650;9.290;2023-08-08T12:04:15;24.70;41.00
57857;DHT22;43683;48.650;9.290;2023-08-08T12:06:41;25.00;40.90
57857;DHT22;43683;48.650;9.290;2023-08-08T12:09:11;25.60;40.10
57857;DHT22;43683;48.650;9.290;2023-08-08T12:11:39;26.00;39.50
57857;DHT22;43683;48.650;9.290;2023-08-08T12:14:07;25.80;39.30
57857;DHT22;43683;48.650;9.290;2023-08-08T12:16:37;25.90;39.10
57857;DHT22;43683;48.650;9.290;2023-08-08T12:19:08;26.40;38.30
57857;DHT22;43683;48.650;9.290;2023-08-08T12:21:36;26.90;38.00
57857;DHT22;43683;48.650;9.290;2023-08-08T12:24:02;26.80;37.80
57857;DHT22;43683;48.650;9.290;2023-08-08T12:26:28;26.10;38.10
57857;DHT22;43683;48.650;9.290;2023-08-08T12:28:53;25.60;38.70
57857;DHT22;43683;48.650;9.290;2023-08-08T12:31:20;25.30;38.70
57857;DHT22;43683;48.650;9.290;2023-08-08T12:33:45;24.90;38.80
57857;DHT22;43683;48.650;9.290;2023-08-08T12:36:14;24.40;39.10
57857;DHT22;43683;48.650;9.290;2023-08-08T12:38:40;24.50;39.00
57857;DHT22;43683;48.650;9.290;2023-08-08T12:41:05;24.60;38.80
57857;DHT22;43683;48.650;9.290;2023-08-08T12:43:31;25.00;38.40
57857;DHT22;43683;48.650;9.290;2023-08-08T12:45:59;25.50;37.70
57857;DHT22;43683;48.650;9.290;2023-08-08T12:48:25;25.50;37.60
57857;DHT22;43683;48.650;9.290;2023-08-08T12:50:50;25.80;37.40
57857;DHT22;43683;48.650;9.290;2023-08-08T12:53:16;25.70;37.30
57857;DHT22;43683;48.650;9.290;2023-08-08T12:55:41;25.50;37.40
57857;DHT22;43683;48.650;9.290;2023-08-08T12:58:07;25.30;37.50
57857;DHT22;43683;48.650;9.290;2023-08-08T13:00:32;25.40;37.70
57857;DHT22;43683;48.650;9.290;2023-08-08T13:02:58;25.30;37.60
57857;DHT22;43683;48.650;9.290;2023-08-08T13:05:23;25.40;37.30
57857;DHT22;43683;48.650;9.290;2023-08-08T13:07:49;25.80;37.10
57857;DHT22;43683;48.650;9.290;2023-08-08T13:10:14;26.20;36.90
57857;DHT22;43683;48.650;9.290;2023-08-08T13:12:40;26.50;37.50
57857;DHT22;43683;48.650;9.290;2023-08-08T13:15:06;26.90;36.70
57857;DHT22;43683;48.650;9.290;2023-08-08T13:17:32;26.80;36.50
57857;DHT22;43683;48.650;9.290;2023-08-08T13:19:58;26.80;36.70
57857;DHT22;43683;48.650;9.290;2023-08-08T13:22:23;27.10;36.40
57857;DHT22;43683;48.650;9.290;2023-08-08T13:24:49;27.00;36.60
57857;DHT22;43683;48.650;9.290;2023-08-08T13:27:14;26.40;36.70
57857;DHT22;43683;48.650;9.290;2023-08-08T13:29:40;25.50;37.30
57857;DHT22;43683;48.650;9.290;2023-08-08T13:32:05;24.70;38.10
57857;DHT22;43683;48.650;9.290;2023-08-08T13:34:31;24.10;38.90
57857;DHT22;43683;48.650;9.290;2023-08-08T13:36:56;23.50;39.50
57857;DHT22;43683;48.650;9.290;2023-08-08T13:39:22;23.10;40.80
57857;DHT22;43683;48.650;9.290;2023-08-08T13:41:47;23.00;40.60
57857;DHT22;43683;48.650;9.290;2023-08-08T13:44:13;23.10;40.70
57857;DHT22;43683;48.650;9.290;2023-08-08T13:46:39;23.90;40.40
57857;DHT22;43683;48.650;9.290;2023-08-08T13:49:04;24.90;39.60
57857;DHT22;43683;48.650;9.290;2023-08-08T13:51:30;24.90;39.30
57857;DHT22;43683;48.650;9.290;2023-08-08T13:53:55;24.60;39.60
57857;DHT22;43683;48.650;9.290;2023-08-08T13:56:21;24.20;40.00
57857;DHT22;43683;48.650;9.290;2023-08-08T13:58:47;24.00;40.20
57857;DHT22;43683;48.650;9.290;2023-08-08T14:01:13;23.90;40.30
57857;DHT22;43683;48.650;9.290;2023-08-08T14:03:39;23.80;40.40
57857;DHT22;43683;48.650;9.290;2023-08-08T14:06:04;23.70;40.40
57857;DHT22;43683;48.650;9.290;2023-08-08T14:08:31;23.90;40.30
57857;DHT22;43683;48.650;9.290;2023-08-08T14:10:57;24.30;39.80
57857;DHT22;43683;48.650;9.290;2023-08-08T14:13:22;24.90;39.20
57857;DHT22;43683;48.650;9.290;2023-08-08T14:15:48;25.40;38.70
57857;DHT22;43683;48.650;9.290;2023-08-08T14:18:14;25.50;38.50
57857;DHT22;43683;48.650;9.290;2023-08-08T14:20:40;25.00;39.10
57857;DHT22;43683;48.650;9.290;2023-08-08T14:23:05;24.40;39.80
57857;DHT22;43683;48.650;9.290;2023-08-08T14:25:31;24.10;40.50
57857;DHT22;43683;48.650;9.290;2023-08-08T14:27:57;23.80;40.80
57857;DHT22;43683;48.650;9.290;2023-08-08T14:30:24;23.50;41.10
57857;DHT22;43683;48.650;9.290;2023-08-08T14:32:52;23.30;41.20
57857;DHT22;43683;48.650;9.290;2023-08-08T14:35:19;23.20;41.20
57857;DHT22;43683;48.650;9.290;2023-08-08T14:37:44;23.00;41.30
57857;DHT22;43683;48.650;9.290;2023-08-08T14:40:10;22.80;41.40
57857;DHT22;43683;48.650;9.290;2023-08-08T14:42:36;22.50;41.70
57857;DHT22;43683;48.650;9.290;2023-08-08T14:45:01;22.30;42.10
57857;DHT22;43683;48.650;9.290;2023-08-08T14:47:27;22.10;42.50
57857;DHT22;43683;48.650;9.290;2023-08-08T14:49:53;22.00;42.80
57857;DHT22;43683;48.650;9.290;2023-08-08T14:52:18;22.00;43.10
57857;DHT22;43683;48.650;9.290;2023-08-08T14:54:44;22.00;43.20
57857;DHT22;43683;48.650;9.290;2023-08-08T14:57:09;22.00;43.40
57857;DHT22;43683;48.650;9.290;2023-08-08T14:59:36;22.20;43.50
57857;DHT22;43683;48.650;9.290;2023-08-08T15:02:01;22.40;43.20
57857;DHT22;43683;48.650;9.290;2023-08-08T15:04:27;22.50;43.30
57857;DHT22;43683;48.650;9.290;2023-08-08T15:06:52;22.90;43.00
57857;DHT22;43683;48.650;9.290;2023-08-08T15:09:18;23.10;42.90
57857;DHT22;43683;48.650;9.290;2023-08-08T15:11:43;23.20;43.00
57857;DHT22;43683;48.650;9.290;2023-08-08T15:14:09;23.40;42.80
57857;DHT22;43683;48.650;9.290;2023-08-08T15:16:35;23.90;42.50
57857;DHT22;43683;48.650;9.290;2023-08-08T15:19:01;24.30;41.80
57857;DHT22;43683;48.650;9.290;2023-08-08T15:21:27;24.10;41.50
57857;DHT22;43683;48.650;9.290;2023-08-08T15:23:52;23.80;41.90
57857;DHT22;43683;48.650;9.290;2023-08-08T15:26:18;23.50;42.20
57857;DHT22;43683;48.650;9.290;2023-08-08T15:28:48;23.40;42.50
57857;DHT22;43683;48.650;9.290;2023-08-08T15:31:14;23.30;42.90